createdAt,value
2023-04-11T00:00:48.569Z,95613.00
2023-04-11T00:03:35.064Z,95620.00
2023-04-11T00:06:21.935Z,95607.00
2023-04-11T00:09:07.882Z,95599.00
2023-04-11T00:11:54.058Z,95598.00
2023-04-11T00:14:45.638Z,95600.00
2023-04-11T00:17:32.091Z,95600.00
2023-04-11T00:20:18.489Z,95596.00
2023-04-11T00:23:04.393Z,95606.00
2023-04-11T00:25:50.144Z,95598.00
2023-04-11T00:28:36.051Z,95592.00
2023-04-11T00:31:22.834Z,95580.00
2023-04-11T00:34:08.914Z,95574.00
2023-04-11T00:36:55.142Z,95571.00
2023-04-11T00:39:41.232Z,95562.00
2023-04-11T00:42:27.664Z,95546.00
2023-04-11T00:45:13.864Z,95548.00
2023-04-11T00:48:01.022Z,95531.00
2023-04-11T00:50:47.671Z,95525.00
2023-04-11T00:53:35.373Z,95510.00
2023-04-11T00:56:22.285Z,95502.00
2023-04-11T00:59:08.053Z,95490.00
2023-04-11T01:01:54.342Z,95486.00
2023-04-11T01:04:40.976Z,95485.00
2023-04-11T01:07:28.241Z,95492.00
2023-04-11T01:10:15.823Z,95487.00
2023-04-11T01:13:01.965Z,95489.00
2023-04-11T01:15:47.961Z,95497.00
2023-04-11T01:18:34.381Z,95494.00
2023-04-11T01:21:21.334Z,95490.00
2023-04-11T01:24:08.859Z,95492.00
2023-04-11T01:26:55.185Z,95488.00
2023-04-11T01:29:41.456Z,95494.00
2023-04-11T01:32:27.365Z,95499.00
2023-04-11T01:35:13.635Z,95485.00
2023-04-11T01:37:59.732Z,95486.00
2023-04-11T01:40:46.969Z,95494.00
2023-04-11T01:43:33.132Z,95500.00
2023-04-11T01:46:19.898Z,95502.00
2023-04-11T01:49:08.116Z,95488.00
2023-04-11T01:51:54.166Z,95488.00
2023-04-11T01:54:40.599Z,95488.00
2023-04-11T01:57:27.252Z,95483.00
2023-04-11T02:00:13.939Z,95486.00
2023-04-11T02:03:05.388Z,95487.00
2023-04-11T02:05:51.576Z,95481.00
2023-04-11T02:08:37.678Z,95468.00
2023-04-11T02:11:23.486Z,95463.00
2023-04-11T02:14:09.951Z,95463.00
2023-04-11T02:16:57.104Z,95463.00
2023-04-11T02:19:45.585Z,95475.00
2023-04-11T02:22:32.148Z,95470.00
2023-04-11T02:25:17.930Z,95463.00
2023-04-11T02:28:05.118Z,95475.00
2023-04-11T02:30:54.075Z,95463.00
2023-04-11T02:33:40.601Z,95449.00
2023-04-11T02:36:28.635Z,95449.00
2023-04-11T02:39:14.737Z,95438.00
2023-04-11T02:42:01.339Z,95445.00
2023-04-11T02:44:47.627Z,95436.00
2023-04-11T02:47:34.334Z,95447.00
2023-04-11T02:50:27.118Z,95433.00
2023-04-11T02:53:16.887Z,95433.00
2023-04-11T02:56:10.857Z,95429.00
2023-04-11T02:58:57.674Z,95416.00
2023-04-11T03:01:45.856Z,95421.00
2023-04-11T03:04:32.707Z,95426.00
2023-04-11T03:07:27.534Z,95426.00
2023-04-11T03:10:14.324Z,95437.00
2023-04-11T03:13:00.950Z,95438.00
2023-04-11T03:15:47.891Z,95434.00
2023-04-11T03:18:35.424Z,95423.00
2023-04-11T03:21:25.874Z,95429.00
2023-04-11T03:24:13.100Z,95429.00
2023-04-11T03:27:01.397Z,95420.00
2023-04-11T03:29:50.996Z,95413.00
2023-04-11T03:32:45.950Z,95405.00
2023-04-11T03:35:32.499Z,95418.00
2023-04-11T03:38:18.805Z,95411.00
2023-04-11T03:41:06.024Z,95425.00
2023-04-11T03:43:52.749Z,95422.00
2023-04-11T03:46:40.171Z,95426.00
2023-04-11T03:49:26.591Z,95442.00
2023-04-11T03:52:17.530Z,95450.00
2023-04-11T03:55:08.710Z,95468.00
2023-04-11T03:57:55.123Z,95481.00
2023-04-11T04:00:42.393Z,95478.00
2023-04-11T04:03:30.029Z,95468.00
2023-04-11T04:06:17.093Z,95461.00
2023-04-11T04:09:05.530Z,95466.00
2023-04-11T04:12:03.415Z,95463.00
2023-04-11T04:15:02.477Z,95472.00
2023-04-11T04:17:48.951Z,95471.00
2023-04-11T04:20:42.504Z,95473.00
2023-04-11T04:23:30.125Z,95478.00
2023-04-11T04:26:38.104Z,95475.00
2023-04-11T04:30:03.575Z,95476.00
2023-04-11T04:33:14.868Z,95512.00
2023-04-11T04:36:10.275Z,95527.00
2023-04-11T04:39:02.320Z,95535.00
2023-04-11T04:41:58.529Z,95524.00
2023-04-11T04:44:51.662Z,95499.00
2023-04-11T04:47:38.878Z,95496.00
2023-04-11T04:50:25.559Z,95485.00
2023-04-11T04:53:12.138Z,95493.00
2023-04-11T04:56:04.125Z,95487.00
2023-04-11T04:58:54.257Z,95481.00
2023-04-11T05:01:41.070Z,95480.00
2023-04-11T05:04:31.301Z,95463.00
2023-04-11T05:07:18.585Z,95452.00
2023-04-11T05:10:11.587Z,95476.00
2023-04-11T05:12:59.444Z,95477.00
2023-04-11T05:15:49.533Z,95470.00
2023-04-11T05:18:35.892Z,95473.00
2023-04-11T05:21:24.480Z,95481.00
2023-04-11T05:24:12.050Z,95488.00
2023-04-11T05:27:00.634Z,95495.00
2023-04-11T05:29:47.123Z,95508.00
2023-04-11T05:32:35.979Z,95526.00
2023-04-11T05:35:22.855Z,95539.00
2023-04-11T05:38:14.749Z,95542.00
2023-04-11T05:41:01.483Z,95572.00
2023-04-11T05:43:47.350Z,95597.00
2023-04-11T05:46:37.914Z,95599.00
2023-04-11T05:49:24.564Z,95612.00
2023-04-11T05:52:10.805Z,95612.00
2023-04-11T05:54:56.975Z,95601.00
2023-04-11T05:57:43.008Z,95606.00
2023-04-11T06:00:31.176Z,95613.00
2023-04-11T06:03:17.696Z,95605.00
2023-04-11T06:06:07.052Z,95605.00
2023-04-11T06:08:52.810Z,95592.00
2023-04-11T06:11:38.593Z,95605.00
2023-04-11T06:14:24.953Z,95605.00
2023-04-11T06:17:11.422Z,95612.00
2023-04-11T06:20:03.543Z,95612.00
2023-04-11T06:22:53.874Z,95602.00
2023-04-11T06:25:40.258Z,95616.00
2023-04-11T06:28:28.713Z,95617.00
2023-04-11T06:31:14.987Z,95613.00
2023-04-11T06:34:02.436Z,95629.00
2023-04-11T06:36:50.153Z,95637.00
2023-04-11T06:39:36.241Z,95639.00
2023-04-11T06:42:22.753Z,95640.00
2023-04-11T06:45:12.057Z,95625.00
2023-04-11T06:47:58.636Z,95640.00
2023-04-11T06:50:46.040Z,95640.00
2023-04-11T06:53:32.609Z,95633.00
2023-04-11T06:56:18.719Z,95646.00
2023-04-11T06:59:05.105Z,95657.00
2023-04-11T07:01:51.484Z,95655.00
2023-04-11T07:04:38.814Z,95665.00
2023-04-11T07:07:25.081Z,95656.00
2023-04-11T07:10:11.329Z,95677.00
2023-04-11T07:12:57.810Z,95661.00
2023-04-11T07:15:44.427Z,95664.00
2023-04-11T07:18:31.563Z,95652.00
2023-04-11T07:21:45.685Z,95671.00
2023-04-11T07:24:31.520Z,95662.00
2023-04-11T07:27:26.450Z,95670.00
2023-04-11T07:30:16.500Z,95656.00
2023-04-11T07:33:03.947Z,95644.00
2023-04-11T07:35:50.454Z,95655.00
2023-04-11T07:38:37.761Z,95657.00
2023-04-11T07:41:24.954Z,95654.00
2023-04-11T07:44:10.852Z,95659.00
2023-04-11T07:46:57.553Z,95667.00
2023-04-11T07:49:43.067Z,95658.00
2023-04-11T07:52:28.868Z,95682.00
2023-04-11T07:55:14.844Z,95690.00
2023-04-11T07:58:01.119Z,95689.00
2023-04-11T08:00:54.961Z,95677.00
2023-04-11T08:03:41.017Z,95695.00
2023-04-11T08:06:29.260Z,95695.00
2023-04-11T08:09:15.298Z,95695.00
2023-04-11T08:12:01.851Z,95677.00
2023-04-11T08:14:49.126Z,95701.00
2023-04-11T08:17:39.070Z,95701.00
2023-04-11T08:20:25.859Z,95696.00
2023-04-11T08:23:11.938Z,95701.00
2023-04-11T08:25:57.703Z,95710.00
2023-04-11T08:28:44.018Z,95709.00
2023-04-11T08:31:30.462Z,95725.00
2023-04-11T08:34:16.780Z,95734.00
2023-04-11T08:37:05.895Z,95734.00
2023-04-11T08:39:51.870Z,95738.00
2023-04-11T08:42:37.892Z,95730.00
2023-04-11T08:45:24.510Z,95750.00
2023-04-11T08:48:12.693Z,95738.00
2023-04-11T08:50:59.180Z,95752.00
2023-04-11T08:53:45.624Z,95755.00
2023-04-11T08:56:32.204Z,95755.00
2023-04-11T08:59:18.080Z,95756.00
2023-04-11T09:02:12.469Z,95738.00
2023-04-11T09:04:59.277Z,95742.00
2023-04-11T09:07:52.003Z,95737.00
2023-04-11T09:10:45.728Z,95722.00
2023-04-11T09:13:31.949Z,95735.00
2023-04-11T09:16:17.728Z,95745.00
2023-04-11T09:19:04.061Z,95742.00
2023-04-11T09:21:50.983Z,95744.00
2023-04-11T09:24:38.029Z,95743.00
2023-04-11T09:27:26.453Z,95741.00
2023-04-11T09:30:26.861Z,95748.00
2023-04-11T09:33:30.155Z,95741.00
2023-04-11T09:36:24.155Z,95735.00
2023-04-11T09:39:18.333Z,95747.00
2023-04-11T09:42:25.653Z,95747.00
2023-04-11T09:45:23.243Z,95755.00
2023-04-11T09:48:11.805Z,95752.00
2023-04-11T09:50:58.815Z,95758.00
2023-04-11T09:53:46.029Z,95751.00
2023-04-11T09:56:34.701Z,95757.00
2023-04-11T09:59:23.499Z,95744.00
2023-04-11T10:02:10.502Z,95749.00
2023-04-11T10:05:00.332Z,95765.00
2023-04-11T10:07:52.660Z,95757.00
2023-04-11T10:10:38.747Z,95753.00
2023-04-11T10:13:47.937Z,95761.00
2023-04-11T10:16:34.760Z,95764.00
2023-04-11T10:19:21.129Z,95778.00
2023-04-11T10:22:07.770Z,95781.00
2023-04-11T10:25:17.189Z,95779.00
2023-04-11T10:28:04.806Z,95766.00
2023-04-11T10:31:05.143Z,95769.00
2023-04-11T10:34:14.799Z,95750.00
2023-04-11T10:37:07.917Z,95774.00
2023-04-11T10:39:54.142Z,95779.00
2023-04-11T10:42:45.870Z,95771.00
2023-04-11T10:45:32.685Z,95772.00
2023-04-11T10:48:19.108Z,95774.00
2023-04-11T10:51:24.856Z,95777.00
2023-04-11T10:54:26.530Z,95769.00
2023-04-11T10:57:12.556Z,95781.00
2023-04-11T11:02:52.087Z,95768.00
2023-04-11T11:05:40.018Z,95755.00
2023-04-11T11:08:38.149Z,95754.00
2023-04-11T11:11:24.356Z,95762.00
2023-04-11T11:14:10.270Z,95766.00
2023-04-11T11:16:56.279Z,95773.00
2023-04-11T11:19:46.934Z,95765.00
2023-04-11T11:22:33.388Z,95773.00
2023-04-11T11:25:21.794Z,95768.00
2023-04-11T11:28:09.953Z,95781.00
2023-04-11T11:30:57.950Z,95784.00
2023-04-11T11:33:44.466Z,95789.00
2023-04-11T11:36:33.493Z,95798.00
2023-04-11T11:39:21.155Z,95789.00
2023-04-11T11:42:08.241Z,95788.00
2023-04-11T11:44:56.716Z,95793.00
2023-04-11T11:47:48.237Z,95788.00
2023-04-11T11:50:34.511Z,95795.00
2023-04-11T11:53:29.093Z,95785.00
2023-04-11T11:56:16.653Z,95784.00
2023-04-11T11:59:05.114Z,95780.00
2023-04-11T12:01:51.377Z,95785.00
2023-04-11T12:04:38.310Z,95785.00
2023-04-11T12:07:24.777Z,95776.00
2023-04-11T12:10:15.937Z,95768.00
2023-04-11T12:13:01.904Z,95773.00
2023-04-11T12:16:01.548Z,95756.00
2023-04-11T12:18:48.021Z,95755.00
2023-04-11T12:21:34.305Z,95758.00
2023-04-11T12:24:20.095Z,95759.00
2023-04-11T12:27:07.745Z,95770.00
2023-04-11T12:29:54.339Z,95771.00
2023-04-11T12:32:41.029Z,95765.00
2023-04-11T12:35:27.567Z,95778.00
2023-04-11T12:38:17.413Z,95783.00
2023-04-11T12:41:30.343Z,95767.00
2023-04-11T12:44:12.413Z,95765.00
2023-04-11T12:46:58.253Z,95771.00
2023-04-11T12:49:44.574Z,95773.00
2023-04-11T12:52:31.133Z,95773.00
2023-04-11T12:55:17.023Z,95776.00
2023-04-11T12:58:03.169Z,95778.00
2023-04-11T13:00:49.086Z,95780.00
2023-04-11T13:03:36.044Z,95791.00
2023-04-11T13:06:23.490Z,95781.00
2023-04-11T13:09:13.343Z,95784.00
2023-04-11T13:12:01.903Z,95774.00
2023-04-11T13:14:47.827Z,95788.00
2023-04-11T13:17:34.301Z,95786.00
2023-04-11T13:20:20.001Z,95780.00
2023-04-11T13:23:06.192Z,95776.00
2023-04-11T13:25:52.608Z,95776.00
2023-04-11T13:28:39.120Z,95753.00
2023-04-11T13:31:26.767Z,95764.00
2023-04-11T13:34:15.791Z,95752.00
2023-04-11T13:37:02.364Z,95766.00
2023-04-11T13:39:49.085Z,95772.00
2023-04-11T13:42:35.468Z,95762.00
2023-04-11T13:45:21.901Z,95770.00
2023-04-11T13:48:08.089Z,95754.00
2023-04-11T13:50:57.621Z,95771.00
2023-04-11T13:53:43.693Z,95762.00
2023-04-11T13:56:29.744Z,95766.00
2023-04-11T13:59:16.164Z,95758.00
2023-04-11T14:02:02.839Z,95760.00
2023-04-11T14:04:49.573Z,95757.00
2023-04-11T14:07:35.917Z,95775.00
2023-04-11T14:10:21.644Z,95772.00
2023-04-11T14:13:07.344Z,95759.00
2023-04-11T14:16:05.453Z,95756.00
2023-04-11T14:18:56.852Z,95755.00
2023-04-11T14:21:44.047Z,95756.00
2023-04-11T14:24:29.821Z,95756.00
2023-04-11T14:27:19.622Z,95755.00
2023-04-11T14:30:16.317Z,95756.00
2023-04-11T14:33:02.787Z,95740.00
2023-04-11T14:35:51.424Z,95742.00
2023-04-11T14:38:37.507Z,95760.00
2023-04-11T14:41:26.354Z,95753.00
2023-04-11T14:44:17.000Z,95742.00
2023-04-11T14:47:03.285Z,95741.00
2023-04-11T14:49:49.863Z,95749.00
2023-04-11T14:52:36.073Z,95753.00
2023-04-11T14:55:35.771Z,95762.00
2023-04-11T14:58:22.680Z,95745.00
2023-04-11T15:01:08.635Z,95751.00
2023-04-11T15:03:55.154Z,95760.00
2023-04-11T15:06:41.316Z,95738.00
2023-04-11T15:09:29.310Z,95742.00
2023-04-11T15:12:16.149Z,95740.00
2023-04-11T15:15:05.469Z,95735.00
2023-04-11T15:18:21.740Z,95737.00
2023-04-11T15:21:08.730Z,95734.00
2023-04-11T15:23:55.033Z,95737.00
2023-04-11T15:26:48.567Z,95733.00
2023-04-11T15:29:36.434Z,95739.00
2023-04-11T15:32:22.800Z,95735.00
2023-04-11T15:35:14.315Z,95736.00
2023-04-11T15:38:00.635Z,95732.00
2023-04-11T15:40:51.501Z,95732.00
2023-04-11T15:43:41.925Z,95733.00
2023-04-11T15:46:29.317Z,95734.00
2023-04-11T15:49:15.548Z,95749.00
2023-04-11T15:52:01.643Z,95740.00
2023-04-11T15:54:47.941Z,95735.00
2023-04-11T15:57:36.802Z,95741.00
2023-04-11T16:00:22.892Z,95729.00
2023-04-11T16:03:10.820Z,95725.00
2023-04-11T16:06:00.531Z,95729.00
2023-04-11T16:08:55.018Z,95734.00
2023-04-11T16:11:51.032Z,95719.00
2023-04-11T16:14:46.432Z,95718.00
2023-04-11T16:17:34.223Z,95731.00
2023-04-11T16:20:21.901Z,95729.00
2023-04-11T16:23:07.811Z,95735.00
2023-04-11T16:25:53.696Z,95725.00
2023-04-11T16:28:39.727Z,95721.00
2023-04-11T16:31:26.531Z,95723.00
2023-04-11T16:34:13.279Z,95728.00
2023-04-11T16:36:59.113Z,95718.00
2023-04-11T16:39:45.306Z,95725.00
2023-04-11T16:42:31.750Z,95718.00
2023-04-11T16:45:17.772Z,95719.00
2023-04-11T16:48:06.241Z,95722.00
2023-04-11T16:50:53.145Z,95721.00
2023-04-11T16:53:41.173Z,95724.00
2023-04-11T16:56:29.165Z,95714.00
2023-04-11T16:59:16.834Z,95701.00
2023-04-11T17:02:02.936Z,95719.00
2023-04-11T17:04:49.518Z,95711.00
2023-04-11T17:07:35.918Z,95729.00
2023-04-11T17:10:21.765Z,95708.00
2023-04-11T17:13:07.973Z,95709.00
2023-04-11T17:15:54.490Z,95705.00
2023-04-11T17:18:41.341Z,95697.00
2023-04-11T17:21:27.536Z,95697.00
2023-04-11T17:24:13.758Z,95701.00
2023-04-11T17:27:00.308Z,95694.00
2023-04-11T17:29:46.344Z,95697.00
2023-04-11T17:32:33.469Z,95693.00
2023-04-11T17:35:20.112Z,95700.00
2023-04-11T17:38:05.920Z,95693.00
2023-04-11T17:41:00.089Z,95680.00
2023-04-11T17:43:49.492Z,95694.00
2023-04-11T17:46:38.151Z,95697.00
2023-04-11T17:49:25.065Z,95687.00
2023-04-11T17:52:11.309Z,95688.00
2023-04-11T17:54:57.671Z,95691.00
2023-04-11T17:57:50.845Z,95699.00
2023-04-11T18:00:48.427Z,95698.00
2023-04-11T18:03:45.436Z,95697.00
2023-04-11T18:06:34.435Z,95687.00
2023-04-11T18:09:20.630Z,95693.00
2023-04-11T18:12:07.239Z,95694.00
2023-04-11T18:14:54.659Z,95689.00
2023-04-11T18:17:41.602Z,95688.00
2023-04-11T18:20:27.598Z,95699.00
2023-04-11T18:23:13.086Z,95707.00
2023-04-11T18:25:58.976Z,95703.00
2023-04-11T18:28:44.844Z,95702.00
2023-04-11T18:31:35.314Z,95703.00
2023-04-11T18:34:21.856Z,95699.00
2023-04-11T18:37:15.281Z,95715.00
2023-04-11T18:40:12.281Z,95711.00
2023-04-11T18:42:58.869Z,95707.00
2023-04-11T18:45:45.275Z,95704.00
2023-04-11T18:48:32.353Z,95696.00
2023-04-11T18:51:21.839Z,95703.00
2023-04-11T18:54:08.231Z,95692.00
2023-04-11T18:56:55.156Z,95701.00
2023-04-11T18:59:44.221Z,95699.00
2023-04-11T19:02:31.339Z,95707.00
2023-04-11T19:05:19.306Z,95703.00
2023-04-11T19:08:05.767Z,95700.00
2023-04-11T19:10:52.621Z,95706.00
2023-04-11T19:13:38.863Z,95708.00
2023-04-11T19:16:27.467Z,95720.00
2023-04-11T19:19:13.471Z,95716.00
2023-04-11T19:22:00.717Z,95703.00
2023-04-11T19:24:49.044Z,95703.00
2023-04-11T19:27:35.672Z,95709.00
2023-04-11T19:30:22.850Z,95711.00
2023-04-11T19:33:09.187Z,95710.00
2023-04-11T19:35:55.667Z,95710.00
2023-04-11T19:38:42.298Z,95708.00
2023-04-11T19:41:29.820Z,95701.00
2023-04-11T19:44:16.705Z,95687.00
2023-04-11T19:47:03.077Z,95682.00
2023-04-11T19:49:52.102Z,95676.00
2023-04-11T19:52:40.333Z,95687.00
2023-04-11T19:55:27.389Z,95691.00
2023-04-11T19:58:13.542Z,95682.00
2023-04-11T20:00:59.341Z,95675.00
2023-04-11T20:03:47.747Z,95682.00
2023-04-11T20:06:35.094Z,95667.00
2023-04-11T20:09:28.760Z,95675.00
2023-04-11T20:12:15.761Z,95677.00
2023-04-11T20:15:01.916Z,95678.00
2023-04-11T20:17:48.485Z,95670.00
2023-04-11T20:20:36.791Z,95674.00
2023-04-11T20:23:22.490Z,95679.00
2023-04-11T20:26:08.519Z,95673.00
2023-04-11T20:28:58.169Z,95670.00
2023-04-11T20:31:44.921Z,95667.00
2023-04-11T20:34:33.865Z,95665.00
2023-04-11T20:37:22.928Z,95674.00
2023-04-11T20:40:14.167Z,95665.00
2023-04-11T20:43:01.039Z,95657.00
2023-04-11T20:45:47.359Z,95657.00
2023-04-11T20:48:34.042Z,95662.00
2023-04-11T20:51:20.145Z,95644.00
2023-04-11T20:54:08.154Z,95651.00
2023-04-11T20:56:54.063Z,95643.00
2023-04-11T20:59:40.512Z,95626.00
2023-04-11T21:02:28.016Z,95646.00
2023-04-11T21:05:18.398Z,95637.00
2023-04-11T21:08:06.629Z,95643.00
2023-04-11T21:10:55.645Z,95632.00
2023-04-11T21:13:41.893Z,95630.00
2023-04-11T21:16:28.169Z,95627.00
2023-04-11T21:19:14.532Z,95629.00
2023-04-11T21:22:04.978Z,95630.00
2023-04-11T21:24:50.850Z,95618.00
2023-04-11T21:27:37.945Z,95624.00
2023-04-11T21:30:25.083Z,95609.00
2023-04-11T21:33:14.534Z,95616.00
2023-04-11T21:36:03.937Z,95610.00
2023-04-11T21:38:49.895Z,95606.00
2023-04-11T21:41:35.794Z,95605.00
2023-04-11T21:44:22.161Z,95602.00
2023-04-11T21:47:12.137Z,95599.00
2023-04-11T21:50:00.549Z,95590.00
2023-04-11T21:52:46.941Z,95588.00
2023-04-11T21:55:32.636Z,95594.00
2023-04-11T21:58:28.613Z,95590.00
2023-04-11T22:01:16.254Z,95583.00
2023-04-11T22:04:03.435Z,95582.00
2023-04-11T22:06:50.484Z,95576.00
2023-04-11T22:09:38.357Z,95580.00
2023-04-11T22:12:27.147Z,95569.00
2023-04-11T22:15:14.231Z,95560.00
2023-04-11T22:18:02.480Z,95549.00
2023-04-11T22:20:48.426Z,95544.00
2023-04-11T22:23:34.387Z,95535.00
2023-04-11T22:26:34.929Z,95535.00
2023-04-11T22:29:22.168Z,95526.00
2023-04-11T22:32:08.574Z,95512.00
2023-04-11T22:34:54.637Z,95498.00
2023-04-11T22:37:40.575Z,95492.00
2023-04-11T22:40:26.990Z,95484.00
2023-04-11T22:43:13.263Z,95479.00
2023-04-11T22:45:59.478Z,95474.00
2023-04-11T22:48:47.043Z,95483.00
2023-04-11T22:51:34.733Z,95487.00
2023-04-11T22:54:21.067Z,95485.00
2023-04-11T22:57:07.397Z,95485.00
2023-04-11T22:59:53.338Z,95477.00
2023-04-11T23:02:40.234Z,95482.00
2023-04-11T23:05:26.396Z,95482.00
2023-04-11T23:08:12.728Z,95476.00
2023-04-11T23:10:59.571Z,95473.00
2023-04-11T23:13:46.355Z,95465.00
2023-04-11T23:16:32.728Z,95471.00
2023-04-11T23:19:20.026Z,95468.00
2023-04-11T23:22:06.641Z,95466.00
2023-04-11T23:24:53.860Z,95464.00
2023-04-11T23:27:39.943Z,95454.00
2023-04-11T23:30:26.220Z,95459.00
2023-04-11T23:33:13.359Z,95453.00
2023-04-11T23:35:59.416Z,95458.00
2023-04-11T23:38:46.497Z,95444.00
2023-04-11T23:41:32.842Z,95442.00
2023-04-11T23:44:18.564Z,95438.00
2023-04-11T23:47:05.981Z,95441.00
2023-04-11T23:49:51.932Z,95447.00
2023-04-11T23:52:38.006Z,95442.00
2023-04-11T23:55:23.831Z,95432.00
2023-04-11T23:58:09.920Z,95434.00
